Main page
METAR-TAF:

METAR-TAF

Airports :

Lappeenranta Airport

Lappeenranta, Finland

latitude: 61-02-45N, longitude: 028-08-55E, elevation: 106 m

Current weather observation

The report was made 25 minutes ago, at 20:50 UTC
Wind 15 kt from the Southwest with gusts up to 25 kt, varying between South and West
Temperature 4°C
Humidity 81%
Pressure 987 hPa
Visibility 10 km or more
Overcast at a height of 2100 ft

METAR: EFLP 172050Z AUTO 22015G25KT 170V260 9999 OVC021 04/01 Q0987

Time: 23:15 (21:15 UTC)

Forecast

The report was made 9 hours and 42 minutes ago, at 11:33 UTC
Forecast valid from 17 at 12 UTC to 17 at 14 UTC
Wind 15 kt from the West/Southwest
Visibility 10 km or more
Broken clouds at a height of 1400 ft
Temporary
from 17 at 12 UTC to 17 at 14 UTC
Wind 15 kt from the West/Southwest with gusts up to 28 kt
Broken clouds at a height of 1500 ft

TAF: EFLP 171133Z 1712/1714 24015KT 9999 BKN014 TEMPO 1712/1714 24015G28KT BKN015

Weather observations and forecasts of more than 4000 airports (METAR and TAF reports).

The available stations are represented by yellow and red dots on the map.

Hover mouse over dot to see the name of the station.

Then click to see weather observations and forecasts.

To change the map : click on the green buttons with a black cross to zoom in, on the green button with a dash to zoom out, or on the green arrows for adjacent maps.


METAR-TAF: